sensor_id;sensor_type;location;lat;lon;timestamp;pressure;altitude;pressure_sealevel;temperature;humidity
7333;BME280;3707;43.618;25.342;2022-10-31T00:01:25;100480.19;;;17.64;88.21
7333;BME280;3707;43.618;25.342;2022-10-31T00:03:52;100478.53;;;17.48;85.68
7333;BME280;3707;43.618;25.342;2022-10-31T00:06:20;100472.53;;;17.33;86.26
7333;BME280;3707;43.618;25.342;2022-10-31T00:08:47;100461.22;;;17.21;85.11
7333;BME280;3707;43.618;25.342;2022-10-31T00:11:15;100486.31;;;17.63;85.51
7333;BME280;3707;43.618;25.342;2022-10-31T00:13:42;100492.47;;;17.62;83.83
7333;BME280;3707;43.618;25.342;2022-10-31T00:16:13;100420.09;;;17.32;82.10
7333;BME280;3707;43.618;25.342;2022-10-31T00:18:40;100494.22;;;17.61;82.12
7333;BME280;3707;43.618;25.342;2022-10-31T00:21:07;100455.84;;;17.44;82.05
7333;BME280;3707;43.618;25.342;2022-10-31T00:23:34;100475.81;;;17.63;82.55
7333;BME280;3707;43.618;25.342;2022-10-31T00:26:01;100489.75;;;17.69;82.56
7333;BME280;3707;43.618;25.342;2022-10-31T00:28:30;100478.47;;;17.60;82.25
7333;BME280;3707;43.618;25.342;2022-10-31T00:30:58;100487.22;;;17.56;82.58
7333;BME280;3707;43.618;25.342;2022-10-31T00:33:26;100511.78;;;17.44;83.74
7333;BME280;3707;43.618;25.342;2022-10-31T00:35:53;100499.66;;;17.20;85.45
7333;BME280;3707;43.618;25.342;2022-10-31T00:38:20;100511.81;;;17.30;85.91
7333;BME280;3707;43.618;25.342;2022-10-31T00:40:46;100505.75;;;17.28;86.18
7333;BME280;3707;43.618;25.342;2022-10-31T00:43:13;100525.03;;;17.09;87.14
7333;BME280;3707;43.618;25.342;2022-10-31T00:45:42;100528.47;;;17.25;87.39
7333;BME280;3707;43.618;25.342;2022-10-31T00:48:09;100539.03;;;17.11;87.42
7333;BME280;3707;43.618;25.342;2022-10-31T00:50:37;100534.59;;;17.19;87.14
7333;BME280;3707;43.618;25.342;2022-10-31T00:53:04;100523.28;;;17.13;86.83
7333;BME280;3707;43.618;25.342;2022-10-31T00:55:31;100539.78;;;17.31;86.05
7333;BME280;3707;43.618;25.342;2022-10-31T00:57:58;100538.16;;;17.06;87.08
7333;BME280;3707;43.618;25.342;2022-10-31T01:00:25;100512.06;;;16.79;87.51
7333;BME280;3707;43.618;25.342;2022-10-31T01:02:53;100546.84;;;17.16;87.81
7333;BME280;3707;43.618;25.342;2022-10-31T01:05:20;100525.94;;;17.02;87.46
7333;BME280;3707;43.618;25.342;2022-10-31T01:07:47;100537.31;;;17.04;87.16
7333;BME280;3707;43.618;25.342;2022-10-31T01:10:14;100538.16;;;17.06;86.98
7333;BME280;3707;43.618;25.342;2022-10-31T01:12:42;100531.19;;;17.04;87.43
7333;BME280;3707;43.618;25.342;2022-10-31T01:15:10;100507.69;;;16.85;87.30
7333;BME280;3707;43.618;25.342;2022-10-31T01:17:38;100530.28;;;17.06;86.71
7333;BME280;3707;43.618;25.342;2022-10-31T01:20:14;100501.50;;;17.00;86.49
7333;BME280;3707;43.618;25.342;2022-10-31T01:22:41;100513.72;;;17.04;86.67
7333;BME280;3707;43.618;25.342;2022-10-31T01:25:09;100515.41;;;17.14;86.21
7333;BME280;3707;43.618;25.342;2022-10-31T01:27:36;100515.41;;;17.16;85.58
7333;BME280;3707;43.618;25.342;2022-10-31T01:30:03;100510.13;;;17.26;85.32
7333;BME280;3707;43.618;25.342;2022-10-31T01:32:30;100499.66;;;17.20;85.13
7333;BME280;3707;43.618;25.342;2022-10-31T01:34:57;100494.41;;;17.20;84.71
7333;BME280;3707;43.618;25.342;2022-10-31T01:37:25;100492.63;;;17.30;84.73
7333;BME280;3707;43.618;25.342;2022-10-31T01:39:52;100517.16;;;17.18;85.20
7333;BME280;3707;43.618;25.342;2022-10-31T01:42:21;100517.13;;;17.24;85.47
7333;BME280;3707;43.618;25.342;2022-10-31T01:44:53;100525.00;;;17.20;85.77
7333;BME280;3707;43.618;25.342;2022-10-31T01:47:26;100500.66;;;17.01;86.55
7333;BME280;3707;43.618;25.342;2022-10-31T01:49:57;100534.69;;;17.04;87.49
7333;BME280;3707;43.618;25.342;2022-10-31T01:52:30;100525.13;;;16.94;88.66
7333;BME280;3707;43.618;25.342;2022-10-31T01:55:02;100451.06;;;16.41;89.36
7333;BME280;3707;43.618;25.342;2022-10-31T01:57:31;100517.38;;;16.61;91.17
7333;BME280;3707;43.618;25.342;2022-10-31T02:00:02;100474.63;;;16.44;91.21
7333;BME280;3707;43.618;25.342;2022-10-31T02:02:30;100501.69;;;16.36;91.88
7333;BME280;3707;43.618;25.342;2022-10-31T02:05:00;100495.56;;;16.44;92.76
7333;BME280;3707;43.618;25.342;2022-10-31T02:07:36;100519.97;;;16.43;93.44
7333;BME280;3707;43.618;25.342;2022-10-31T02:10:05;100498.19;;;16.16;94.53
7333;BME280;3707;43.618;25.342;2022-10-31T02:12:33;100510.44;;;16.26;94.42
7333;BME280;3707;43.618;25.342;2022-10-31T02:15:01;100503.44;;;16.15;94.92
7333;BME280;3707;43.618;25.342;2022-10-31T02:17:29;100505.19;;;16.29;94.23
7333;BME280;3707;43.618;25.342;2022-10-31T02:20:04;100432.00;;;15.87;94.39
7333;BME280;3707;43.618;25.342;2022-10-31T02:22:40;100510.41;;;16.29;94.42
7333;BME280;3707;43.618;25.342;2022-10-31T02:25:30;100517.41;;;16.29;94.37
7333;BME280;3707;43.618;25.342;2022-10-31T02:28:30;100513.91;;;16.22;94.94
7333;BME280;3707;43.618;25.342;2022-10-31T02:31:12;100526.13;;;16.11;96.00
7333;BME280;3707;43.618;25.342;2022-10-31T02:33:45;100532.22;;;15.95;97.56
7333;BME280;3707;43.618;25.342;2022-10-31T02:36:21;100507.81;;;15.76;97.70
7333;BME280;3707;43.618;25.342;2022-10-31T02:38:58;100549.66;;;15.95;98.21
7333;BME280;3707;43.618;25.342;2022-10-31T02:41:33;100556.63;;;15.86;98.61
7333;BME280;3707;43.618;25.342;2022-10-31T02:44:07;100554.00;;;15.82;99.72
7333;BME280;3707;43.618;25.342;2022-10-31T02:46:43;100554.88;;;15.78;100.00
7333;BME280;3707;43.618;25.342;2022-10-31T02:49:16;100519.94;;;15.47;100.00
7333;BME280;3707;43.618;25.342;2022-10-31T02:51:45;100484.13;;;15.08;100.00
7333;BME280;3707;43.618;25.342;2022-10-31T02:54:19;100553.13;;;15.62;100.00
7333;BME280;3707;43.618;25.342;2022-10-31T02:56:48;100557.44;;;15.54;100.00
7333;BME280;3707;43.618;25.342;2022-10-31T02:59:17;100544.31;;;15.40;100.00
7333;BME280;3707;43.618;25.342;2022-10-31T03:02:06;100553.09;;;15.60;100.00
7333;BME280;3707;43.618;25.342;2022-10-31T03:05:11;100561.78;;;15.56;100.00
7333;BME280;3707;43.618;25.342;2022-10-31T03:07:42;100561.75;;;15.44;100.00
7333;BME280;3707;43.618;25.342;2022-10-31T03:10:19;100573.91;;;15.39;100.00
7333;BME280;3707;43.618;25.342;2022-10-31T03:12:59;100559.97;;;15.35;100.00
7333;BME280;3707;43.618;25.342;2022-10-31T03:15:31;100572.19;;;15.44;100.00
7333;BME280;3707;43.618;25.342;2022-10-31T03:18:03;100580.06;;;15.49;100.00
7333;BME280;3707;43.618;25.342;2022-10-31T03:20:36;100566.06;;;15.30;100.00
7333;BME280;3707;43.618;25.342;2022-10-31T03:23:06;100579.94;;;15.24;100.00
7333;BME280;3707;43.618;25.342;2022-10-31T03:25:36;100599.09;;;15.23;100.00
7333;BME280;3707;43.618;25.342;2022-10-31T03:28:05;100595.59;;;15.12;100.00
7333;BME280;3707;43.618;25.342;2022-10-31T03:30:35;100589.44;;;15.04;100.00
7333;BME280;3707;43.618;25.342;2022-10-31T03:33:10;100578.06;;;14.90;100.00
7333;BME280;3707;43.618;25.342;2022-10-31T03:35:40;100610.28;;;14.97;100.00
7333;BME280;3707;43.618;25.342;2022-10-31T03:38:08;100616.34;;;14.91;100.00
7333;BME280;3707;43.618;25.342;2022-10-31T03:40:37;100624.13;;;14.79;100.00
7333;BME280;3707;43.618;25.342;2022-10-31T03:43:10;100623.19;;;14.74;100.00
7333;BME280;3707;43.618;25.342;2022-10-31T03:45:41;100599.47;;;14.39;100.00
7333;BME280;3707;43.618;25.342;2022-10-31T03:48:12;100629.19;;;14.59;100.00
7333;BME280;3707;43.618;25.342;2022-10-31T03:50:48;100614.25;;;14.37;100.00
7333;BME280;3707;43.618;25.342;2022-10-31T03:53:20;100636.88;;;14.43;100.00
7333;BME280;3707;43.618;25.342;2022-10-31T03:55:51;100634.25;;;14.39;100.00
7333;BME280;3707;43.618;25.342;2022-10-31T03:58:22;100623.84;;;14.41;100.00
7333;BME280;3707;43.618;25.342;2022-10-31T04:00:51;100626.41;;;14.38;100.00
7333;BME280;3707;43.618;25.342;2022-10-31T04:03:23;100617.72;;;14.39;100.00
7333;BME280;3707;43.618;25.342;2022-10-31T04:05:54;100610.69;;;14.33;100.00
7333;BME280;3707;43.618;25.342;2022-10-31T04:08:27;100615.16;;;14.44;100.00
7333;BME280;3707;43.618;25.342;2022-10-31T04:10:56;100581.03;;;14.22;100.00
7333;BME280;3707;43.618;25.342;2022-10-31T04:13:26;100602.91;;;14.35;100.00
7333;BME280;3707;43.618;25.342;2022-10-31T04:15:55;100626.44;;;14.39;100.00
7333;BME280;3707;43.618;25.342;2022-10-31T04:18:24;100618.66;;;14.47;100.00
7333;BME280;3707;43.618;25.342;2022-10-31T04:20:59;100625.66;;;14.51;100.00
7333;BME280;3707;43.618;25.342;2022-10-31T04:23:27;100626.47;;;14.41;100.00
7333;BME280;3707;43.618;25.342;2022-10-31T04:25:54;100632.53;;;14.43;100.00
7333;BME280;3707;43.618;25.342;2022-10-31T04:28:21;100634.28;;;14.41;100.00
7333;BME280;3707;43.618;25.342;2022-10-31T04:30:48;100624.59;;;14.32;100.00
7333;BME280;3707;43.618;25.342;2022-10-31T04:33:15;100636.88;;;14.43;100.00
7333;BME280;3707;43.618;25.342;2022-10-31T04:35:43;100552.25;;;14.09;100.00
7333;BME280;3707;43.618;25.342;2022-10-31T04:38:10;100597.59;;;14.30;100.00
7333;BME280;3707;43.618;25.342;2022-10-31T04:40:37;100538.31;;;14.10;100.00
7333;BME280;3707;43.618;25.342;2022-10-31T04:43:04;100604.75;;;14.50;100.00
7333;BME280;3707;43.618;25.342;2022-10-31T04:45:30;100611.72;;;14.52;100.00
7333;BME280;3707;43.618;25.342;2022-10-31T04:47:57;100586.47;;;14.47;100.00
7333;BME280;3707;43.618;25.342;2022-10-31T04:50:24;100636.19;;;14.65;100.00
7333;BME280;3707;43.618;25.342;2022-10-31T04:52:52;100645.97;;;14.93;100.00
7333;BME280;3707;43.618;25.342;2022-10-31T04:55:19;100612.72;;;14.65;100.00
7333;BME280;3707;43.618;25.342;2022-10-31T04:57:47;100617.19;;;14.85;100.00
7333;BME280;3707;43.618;25.342;2022-10-31T05:00:16;100647.75;;;15.03;100.00
7333;BME280;3707;43.618;25.342;2022-10-31T05:02:44;100646.03;;;15.04;100.00
7333;BME280;3707;43.618;25.342;2022-10-31T05:05:11;100634.09;;;15.50;100.00
7333;BME280;3707;43.618;25.342;2022-10-31T05:07:39;100655.84;;;15.47;100.00
7333;BME280;3707;43.618;25.342;2022-10-31T05:10:09;100649.72;;;15.47;100.00
7333;BME280;3707;43.618;25.342;2022-10-31T05:12:36;100640.00;;;15.14;100.00
7333;BME280;3707;43.618;25.342;2022-10-31T05:15:04;100658.44;;;15.43;100.00
7333;BME280;3707;43.618;25.342;2022-10-31T05:17:31;100653.16;;;15.33;100.00
7333;BME280;3707;43.618;25.342;2022-10-31T05:19:58;100666.22;;;15.38;100.00
7333;BME280;3707;43.618;25.342;2022-10-31T05:22:25;100659.28;;;15.40;100.00
7333;BME280;3707;43.618;25.342;2022-10-31T05:24:51;100663.75;;;15.55;100.00
7333;BME280;3707;43.618;25.342;2022-10-31T05:27:19;100664.69;;;15.69;100.00
7333;BME280;3707;43.618;25.342;2022-10-31T05:29:46;100667.22;;;15.51;100.00
7333;BME280;3707;43.618;25.342;2022-10-31T05:32:13;100668.13;;;15.59;100.00
7333;BME280;3707;43.618;25.342;2022-10-31T05:34:40;100656.81;;;15.66;100.00
7333;BME280;3707;43.618;25.342;2022-10-31T05:37:06;100677.81;;;15.90;100.00
7333;BME280;3707;43.618;25.342;2022-10-31T05:39:33;100674.34;;;15.97;100.00
7333;BME280;3707;43.618;25.342;2022-10-31T05:42:00;100683.09;;;16.08;100.00
7333;BME280;3707;43.618;25.342;2022-10-31T05:44:28;100677.91;;;16.29;100.00
7333;BME280;3707;43.618;25.342;2022-10-31T05:46:55;100610.66;;;15.84;100.00
7333;BME280;3707;43.618;25.342;2022-10-31T05:49:22;100687.50;;;16.41;99.45
7333;BME280;3707;43.618;25.342;2022-10-31T05:51:49;100684.88;;;16.46;97.63
7333;BME280;3707;43.618;25.342;2022-10-31T05:54:15;100693.66;;;16.73;96.14
7333;BME280;3707;43.618;25.342;2022-10-31T05:56:42;100668.34;;;16.68;94.89
7333;BME280;3707;43.618;25.342;2022-10-31T05:59:09;100627.31;;;16.40;93.21
7333;BME280;3707;43.618;25.342;2022-10-31T06:01:37;100698.88;;;17.11;94.52
7333;BME280;3707;43.618;25.342;2022-10-31T06:04:04;100705.81;;;17.27;93.00
7333;BME280;3707;43.618;25.342;2022-10-31T06:06:31;100708.34;;;17.52;92.36
7333;BME280;3707;43.618;25.342;2022-10-31T06:08:57;100692.59;;;17.70;89.40
7333;BME280;3707;43.618;25.342;2022-10-31T06:11:24;100707.38;;;17.88;87.87
7333;BME280;3707;43.618;25.342;2022-10-31T06:13:51;100701.22;;;17.99;85.82
7333;BME280;3707;43.618;25.342;2022-10-31T06:16:18;100715.97;;;18.17;84.79
7333;BME280;3707;43.618;25.342;2022-10-31T06:18:48;100722.03;;;18.26;83.67
7333;BME280;3707;43.618;25.342;2022-10-31T06:21:15;100721.47;;;17.68;86.91
7333;BME280;3707;43.618;25.342;2022-10-31T06:23:41;100717.13;;;17.57;87.44
7333;BME280;3707;43.618;25.342;2022-10-31T06:26:08;100726.72;;;17.62;88.19
7333;BME280;3707;43.618;25.342;2022-10-31T06:28:35;100731.97;;;17.46;87.88
7333;BME280;3707;43.618;25.342;2022-10-31T06:31:02;100725.94;;;17.30;89.09
7333;BME280;3707;43.618;25.342;2022-10-31T06:33:28;100707.59;;;17.10;95.64
7333;BME280;3707;43.618;25.342;2022-10-31T06:35:57;100725.94;;;17.30;92.03
7333;BME280;3707;43.618;25.342;2022-10-31T06:38:25;100721.53;;;17.24;91.73
7333;BME280;3707;43.618;25.342;2022-10-31T06:40:52;100701.47;;;17.16;91.14
7333;BME280;3707;43.618;25.342;2022-10-31T06:43:19;100718.94;;;17.24;90.50
7333;BME280;3707;43.618;25.342;2022-10-31T06:45:45;100711.94;;;17.22;91.43
7333;BME280;3707;43.618;25.342;2022-10-31T06:48:12;100732.88;;;17.35;91.37
7333;BME280;3707;43.618;25.342;2022-10-31T06:50:39;100726.75;;;17.38;91.24
7333;BME280;3707;43.618;25.342;2022-10-31T06:53:07;100727.66;;;17.40;91.64
7333;BME280;3707;43.618;25.342;2022-10-31T06:55:34;100732.03;;;17.26;92.26
7333;BME280;3707;43.618;25.342;2022-10-31T06:58:01;100729.41;;;17.32;92.58
7333;BME280;3707;43.618;25.342;2022-10-31T07:00:29;100728.50;;;17.44;91.96
7333;BME280;3707;43.618;25.342;2022-10-31T07:02:58;100727.59;;;17.45;90.19
7333;BME280;3707;43.618;25.342;2022-10-31T07:05:26;100738.94;;;17.56;89.97
7333;BME280;3707;43.618;25.342;2022-10-31T07:07:53;100738.97;;;17.62;90.15
7333;BME280;3707;43.618;25.342;2022-10-31T07:10:22;100720.59;;;17.59;90.77
7333;BME280;3707;43.618;25.342;2022-10-31T07:12:54;100747.72;;;17.43;90.86
7333;BME280;3707;43.618;25.342;2022-10-31T07:15:21;100745.13;;;17.44;90.29
7333;BME280;3707;43.618;25.342;2022-10-31T07:17:48;100704.97;;;17.13;88.79
7333;BME280;3707;43.618;25.342;2022-10-31T07:20:15;100744.19;;;17.56;90.07
7333;BME280;3707;43.618;25.342;2022-10-31T07:22:42;100747.69;;;17.64;90.03
7333;BME280;3707;43.618;25.342;2022-10-31T07:25:09;100761.63;;;17.84;88.94
7333;BME280;3707;43.618;25.342;2022-10-31T07:27:38;100762.41;;;18.03;87.46
7333;BME280;3707;43.618;25.342;2022-10-31T07:30:06;100730.09;;;17.96;87.68
7333;BME280;3707;43.618;25.342;2022-10-31T07:32:39;100754.41;;;18.33;85.79
7333;BME280;3707;43.618;25.342;2022-10-31T07:35:07;100751.78;;;18.28;86.00
7333;BME280;3707;43.618;25.342;2022-10-31T07:37:34;100750.94;;;18.23;83.43
7333;BME280;3707;43.618;25.342;2022-10-31T07:40:01;100672.34;;;17.96;83.00
7333;BME280;3707;43.618;25.342;2022-10-31T07:42:28;100725.38;;;18.56;83.59
7333;BME280;3707;43.618;25.342;2022-10-31T07:44:56;100745.19;;;18.99;81.49
7333;BME280;3707;43.618;25.342;2022-10-31T07:47:22;100726.78;;;19.01;80.50
7333;BME280;3707;43.618;25.342;2022-10-31T07:49:49;100705.69;;;19.07;78.46
7333;BME280;3707;43.618;25.342;2022-10-31T07:52:16;100740.53;;;19.28;79.02
7333;BME280;3707;43.618;25.342;2022-10-31T07:54:43;100737.78;;;19.44;77.75
7333;BME280;3707;43.618;25.342;2022-10-31T07:57:09;100742.84;;;19.59;75.15
7333;BME280;3707;43.618;25.342;2022-10-31T07:59:36;100731.56;;;19.49;74.98
7333;BME280;3707;43.618;25.342;2022-10-31T08:02:04;100752.16;;;19.89;74.04
7333;BME280;3707;43.618;25.342;2022-10-31T08:04:31;100739.31;;;19.63;75.19
7333;BME280;3707;43.618;25.342;2022-10-31T08:06:58;100763.88;;;19.63;73.99
7333;BME280;3707;43.618;25.342;2022-10-31T08:09:25;100763.06;;;19.55;74.67
7333;BME280;3707;43.618;25.342;2022-10-31T08:11:52;100757.56;;;19.78;74.05
7333;BME280;3707;43.618;25.342;2022-10-31T08:14:19;100713.00;;;19.63;74.33
7333;BME280;3707;43.618;25.342;2022-10-31T08:16:47;100756.25;;;20.12;72.69
7333;BME280;3707;43.618;25.342;2022-10-31T08:19:15;100769.88;;;20.45;70.86
7333;BME280;3707;43.618;25.342;2022-10-31T08:21:42;100774.94;;;20.58;71.07
7333;BME280;3707;43.618;25.342;2022-10-31T08:24:09;100755.75;;;20.49;72.11
7333;BME280;3707;43.618;25.342;2022-10-31T08:26:36;100758.72;;;20.86;70.22
7333;BME280;3707;43.618;25.342;2022-10-31T08:29:03;100757.50;;;21.06;67.74
7333;BME280;3707;43.618;25.342;2022-10-31T08:31:29;100762.63;;;21.15;66.95
7333;BME280;3707;43.618;25.342;2022-10-31T08:33:56;100728.47;;;21.06;67.23
7333;BME280;3707;43.618;25.342;2022-10-31T08:36:24;100773.44;;;21.51;66.79
7333;BME280;3707;43.618;25.342;2022-10-31T08:38:51;100769.19;;;21.42;66.26
7333;BME280;3707;43.618;25.342;2022-10-31T08:41:18;100769.66;;;21.16;66.81
7333;BME280;3707;43.618;25.342;2022-10-31T08:43:45;100754.44;;;21.31;65.77
7333;BME280;3707;43.618;25.342;2022-10-31T08:46:12;100743.94;;;21.29;65.61
7333;BME280;3707;43.618;25.342;2022-10-31T08:48:39;100754.22;;;21.43;64.38
7333;BME280;3707;43.618;25.342;2022-10-31T08:51:06;100761.00;;;21.56;63.55
7333;BME280;3707;43.618;25.342;2022-10-31T08:53:34;100753.75;;;21.68;62.58
7333;BME280;3707;43.618;25.342;2022-10-31T08:56:01;100755.88;;;21.48;63.04
7333;BME280;3707;43.618;25.342;2022-10-31T08:58:28;100753.56;;;21.32;64.03
7333;BME280;3707;43.618;25.342;2022-10-31T09:00:55;100766.06;;;21.19;64.30
7333;BME280;3707;43.618;25.342;2022-10-31T09:03:26;100769.19;;;21.44;69.07
7333;BME280;3707;43.618;25.342;2022-10-31T09:05:55;100732.88;;;21.07;65.80
7333;BME280;3707;43.618;25.342;2022-10-31T09:08:22;100749.53;;;21.11;64.12
7333;BME280;3707;43.618;25.342;2022-10-31T09:10:51;100769.78;;;21.07;64.68
7333;BME280;3707;43.618;25.342;2022-10-31T09:13:19;100772.44;;;21.06;64.92
7333;BME280;3707;43.618;25.342;2022-10-31T09:15:47;100766.34;;;21.02;65.20
7333;BME280;3707;43.618;25.342;2022-10-31T09:18:16;100771.78;;;20.93;65.69
7333;BME280;3707;43.618;25.342;2022-10-31T09:20:44;100766.34;;;21.02;65.33
7333;BME280;3707;43.618;25.342;2022-10-31T09:23:13;100767.28;;;20.98;65.72
7333;BME280;3707;43.618;25.342;2022-10-31T09:25:40;100769.03;;;20.99;65.46
7333;BME280;3707;43.618;25.342;2022-10-31T09:28:11;100755.44;;;21.25;64.99
7333;BME280;3707;43.618;25.342;2022-10-31T09:30:38;100748.34;;;21.29;65.90
7333;BME280;3707;43.618;25.342;2022-10-31T09:33:08;100751.94;;;21.24;64.15
7333;BME280;3707;43.618;25.342;2022-10-31T09:35:36;100745.09;;;21.14;64.56
7333;BME280;3707;43.618;25.342;2022-10-31T09:38:04;100752.16;;;21.60;63.34
7333;BME280;3707;43.618;25.342;2022-10-31T09:40:34;100758.50;;;21.50;62.86
7333;BME280;3707;43.618;25.342;2022-10-31T09:43:12;100746.72;;;21.66;63.19
7333;BME280;3707;43.618;25.342;2022-10-31T09:45:47;100748.19;;;22.23;60.42
7333;BME280;3707;43.618;25.342;2022-10-31T09:48:31;100696.47;;;22.15;59.46
7333;BME280;3707;43.618;25.342;2022-10-31T09:51:05;100746.47;;;22.61;58.28
7333;BME280;3707;43.618;25.342;2022-10-31T09:53:38;100722.03;;;22.88;56.79
7333;BME280;3707;43.618;25.342;2022-10-31T09:56:08;100750.13;;;22.92;56.03
7333;BME280;3707;43.618;25.342;2022-10-31T09:58:41;100739.59;;;23.25;55.46
7333;BME280;3707;43.618;25.342;2022-10-31T10:01:21;100678.97;;;23.15;54.37
7333;BME280;3707;43.618;25.342;2022-10-31T10:03:53;100726.09;;;23.35;54.31
7333;BME280;3707;43.618;25.342;2022-10-31T10:06:26;100712.25;;;23.58;53.77
7333;BME280;3707;43.618;25.342;2022-10-31T10:08:54;100732.06;;;23.09;54.59
7333;BME280;3707;43.618;25.342;2022-10-31T10:11:32;100733.69;;;23.15;54.48
7333;BME280;3707;43.618;25.342;2022-10-31T10:14:16;100733.47;;;23.56;54.67
7333;BME280;3707;43.618;25.342;2022-10-31T10:17:04;100719.44;;;23.53;53.24
7333;BME280;3707;43.618;25.342;2022-10-31T10:19:53;100708.53;;;23.65;53.43
7333;BME280;3707;43.618;25.342;2022-10-31T10:22:31;100728.47;;;24.07;52.66
7333;BME280;3707;43.618;25.342;2022-10-31T10:25:14;100723.00;;;24.41;51.41
7333;BME280;3707;43.618;25.342;2022-10-31T10:27:49;100720.44;;;24.40;50.51
7333;BME280;3707;43.618;25.342;2022-10-31T10:30:20;100704.59;;;24.37;50.52
7333;BME280;3707;43.618;25.342;2022-10-31T10:32:49;100705.88;;;24.25;50.45
7333;BME280;3707;43.618;25.342;2022-10-31T10:35:22;100722.28;;;24.64;50.17
7333;BME280;3707;43.618;25.342;2022-10-31T10:37:52;100723.19;;;24.63;49.74
7333;BME280;3707;43.618;25.342;2022-10-31T10:40:24;100717.31;;;24.80;49.91
7333;BME280;3707;43.618;25.342;2022-10-31T10:42:59;100718.81;;;24.90;49.80
7333;BME280;3707;43.618;25.342;2022-10-31T10:45:49;100710.44;;;24.74;49.90
7333;BME280;3707;43.618;25.342;2022-10-31T10:48:42;100715.25;;;25.15;49.16
7333;BME280;3707;43.618;25.342;2022-10-31T10:51:18;100699.66;;;25.06;49.10
7333;BME280;3707;43.618;25.342;2022-10-31T10:53:54;100723.81;;;24.71;50.12
7333;BME280;3707;43.618;25.342;2022-10-31T10:56:38;100709.00;;;24.92;49.71
7333;BME280;3707;43.618;25.342;2022-10-31T10:59:10;100712.00;;;25.07;49.01
7333;BME280;3707;43.618;25.342;2022-10-31T11:01:40;100648.97;;;24.89;48.67
7333;BME280;3707;43.618;25.342;2022-10-31T11:04:27;100708.41;;;25.33;48.78
7333;BME280;3707;43.618;25.342;2022-10-31T11:06:59;100717.06;;;25.40;47.72
7333;BME280;3707;43.618;25.342;2022-10-31T11:09:25;100688.13;;;25.07;48.26
7333;BME280;3707;43.618;25.342;2022-10-31T11:11:53;100705.97;;;25.02;49.33
7333;BME280;3707;43.618;25.342;2022-10-31T11:14:21;100697.09;;;25.03;49.02
7333;BME280;3707;43.618;25.342;2022-10-31T11:16:52;100691.94;;;24.99;48.40
7333;BME280;3707;43.618;25.342;2022-10-31T11:19:22;100656.38;;;24.78;48.85
7333;BME280;3707;43.618;25.342;2022-10-31T11:21:50;100666.13;;;24.78;48.80
7333;BME280;3707;43.618;25.342;2022-10-31T11:24:19;100691.56;;;25.09;48.34
7333;BME280;3707;43.618;25.342;2022-10-31T11:26:48;100691.16;;;24.97;48.82
7333;BME280;3707;43.618;25.342;2022-10-31T11:29:17;100679.78;;;24.93;49.29
7333;BME280;3707;43.618;25.342;2022-10-31T11:31:47;100637.72;;;24.29;49.84
7333;BME280;3707;43.618;25.342;2022-10-31T11:34:27;100681.03;;;24.82;49.19
7333;BME280;3707;43.618;25.342;2022-10-31T11:37:02;100680.84;;;24.88;49.08
7333;BME280;3707;43.618;25.342;2022-10-31T11:39:30;100682.50;;;24.64;49.10
7333;BME280;3707;43.618;25.342;2022-10-31T11:41:59;100665.09;;;24.82;48.82
7333;BME280;3707;43.618;25.342;2022-10-31T11:44:29;100665.25;;;24.77;48.78
7333;BME280;3707;43.618;25.342;2022-10-31T11:46:59;100666.78;;;24.58;49.12
7333;BME280;3707;43.618;25.342;2022-10-31T11:49:31;100668.00;;;24.74;49.00
7333;BME280;3707;43.618;25.342;2022-10-31T11:52:04;100669.19;;;24.92;49.37
7333;BME280;3707;43.618;25.342;2022-10-31T11:54:33;100670.00;;;24.94;48.38
7333;BME280;3707;43.618;25.342;2022-10-31T11:57:03;100579.50;;;24.26;49.06
7333;BME280;3707;43.618;25.342;2022-10-31T11:59:31;100655.31;;;24.84;49.03
7333;BME280;3707;43.618;25.342;2022-10-31T12:02:00;100656.47;;;25.01;48.96
7333;BME280;3707;43.618;25.342;2022-10-31T12:04:35;100650.97;;;25.07;47.99
7333;BME280;3707;43.618;25.342;2022-10-31T12:07:03;100650.41;;;24.98;48.12
7333;BME280;3707;43.618;25.342;2022-10-31T12:09:33;100644.13;;;25.25;47.61
7333;BME280;3707;43.618;25.342;2022-10-31T12:12:21;100634.59;;;25.20;47.61
7333;BME280;3707;43.618;25.342;2022-10-31T12:15:02;100626.91;;;25.12;48.03
7333;BME280;3707;43.618;25.342;2022-10-31T12:17:36;100645.53;;;25.35;47.53
7333;BME280;3707;43.618;25.342;2022-10-31T12:20:18;100649.09;;;25.59;47.28
7333;BME280;3707;43.618;25.342;2022-10-31T12:22:53;100653.38;;;25.63;46.88
7333;BME280;3707;43.618;25.342;2022-10-31T12:25:33;100633.84;;;25.64;47.00
7333;BME280;3707;43.618;25.342;2022-10-31T12:28:29;100644.09;;;25.50;46.47
7333;BME280;3707;43.618;25.342;2022-10-31T12:31:12;100639.78;;;24.98;48.20
7333;BME280;3707;43.618;25.342;2022-10-31T12:33:50;100616.59;;;24.78;48.17
7333;BME280;3707;43.618;25.342;2022-10-31T12:36:46;100647.19;;;24.90;48.29
7333;BME280;3707;43.618;25.342;2022-10-31T12:39:24;100627.22;;;24.52;49.30
7333;BME280;3707;43.618;25.342;2022-10-31T12:41:52;100642.69;;;24.38;49.26
7333;BME280;3707;43.618;25.342;2022-10-31T12:44:34;100635.47;;;24.43;49.56
7333;BME280;3707;43.618;25.342;2022-10-31T12:47:23;100629.34;;;24.14;50.01
7333;BME280;3707;43.618;25.342;2022-10-31T12:50:00;100631.69;;;23.94;50.25
7333;BME280;3707;43.618;25.342;2022-10-31T12:52:41;100641.91;;;23.79;51.73
7333;BME280;3707;43.618;25.342;2022-10-31T12:55:24;100582.31;;;23.64;52.00
7333;BME280;3707;43.618;25.342;2022-10-31T12:57:59;100641.16;;;24.03;51.45
7333;BME280;3707;43.618;25.342;2022-10-31T13:00:28;100624.38;;;23.75;51.99
7333;BME280;3707;43.618;25.342;2022-10-31T13:03:00;100639.59;;;23.96;51.14
7333;BME280;3707;43.618;25.342;2022-10-31T13:05:32;100650.53;;;24.14;51.27
7333;BME280;3707;43.618;25.342;2022-10-31T13:08:05;100644.72;;;24.30;50.61
7333;BME280;3707;43.618;25.342;2022-10-31T13:10:37;100634.28;;;24.25;50.55
7333;BME280;3707;43.618;25.342;2022-10-31T13:13:09;100641.94;;;24.34;51.07
7333;BME280;3707;43.618;25.342;2022-10-31T13:15:46;100635.53;;;24.41;50.50